Beckers Corners, New York
Current Conditions -  °F | °C
As of 7:51 AM on Friday 24 Oct 2014 (Local Time) from KALB Reporting Station
Light Rain Light Rain  
Wind Chill:   Ceiling: 700
Heat Index:   Visibility: 2.5mi
Dew Point:   Wind: 6mph
Humidity: 89%   Direction: 340°NNW
Pressure: 29.85"   Gusts: NA
Location:  42.5455°N, 73.8296°W
Report Text: KALB 241151Z 34005KT 2 1/2SM -RA BR BKN007 OVC012 08/06 A2985 RMK AO2 TWR VIS 3 SLP109 VIS 2V3 CIG 005V010 P0006 60014 70074 T00780061 10083 20072 50005 $
Loading
Personal Weather Stations






























Interactive Weather Map
Tropical Storm Tracking
New forecast layout! Learn more

10-Day Weather Forecast

Advertisements
Track Severe Weather on mobile